F/V Le Dolmen — FHMD — position and weather

sailwx.info

Track history (hours):
 
Tides and Currents Weather Stations Pressure Air Temp Water Temp Dewpoint Dewpoint Depression Visibility Wind Speed Wind Dir Waves Ship Positions

F/V Le Dolmen

Last reported at 2017-Nov-18 17:17 UTC. Time now 2017-Nov-18 17:49 UTC.
Position N 46°35' W 003°23'.

Length 18 m.

Type: Fishing. MMSI: 228374000.

Date/timePositionNaut miles runAvg speedWind from/ knotsBaromVisibWave heightAir tempDewpointWater temp
2017-Nov-18 17:17N 46°35' W 003°23'5 3.0
2017-Nov-18 15:35N 46°40' W 003°27'48 1.3
2017-Nov-17 03:16N 47°17' W 002°41'2 9.4
2017-Nov-17 03:00N 47°19' W 002°39'5 9.6
2017-Nov-17 02:29N 47°20' W 002°32'1 1.7
2017-Nov-17 01:59N 47°21' W 002°31'0 0.0
2017-Nov-16 23:58N 47°21' W 002°31'3 7.2
2017-Nov-16 23:30N 47°18' W 002°34'5 9.8
2017-Nov-16 23:00N 47°14' W 002°38'5 9.9
2017-Nov-16 22:30N 47°10' W 002°43'5 9.8
2017-Nov-16 22:00N 47°07' W 002°48'3 6.9
2017-Nov-16 21:30N 47°04' W 002°51'2 3.1
2017-Nov-16 20:54N 47°03' W 002°52'3 2.8
2017-Nov-16 19:41N 47°00' W 002°49'1 3.4
2017-Nov-16 19:28N 47°00' W 002°48'1 3.2
2017-Nov-16 19:00N 47°01' W 002°46'2 3.4
2017-Nov-16 18:30N 47°02' W 002°44'3 3.1
2017-Nov-16 17:37N 47°03' W 002°40'0 2.7
2017-Nov-16 17:30N 47°02' W 002°40'1 2.5
2017-Nov-16 17:00N 47°01' W 002°41'1 2.9
2017-Nov-16 16:30N 46°60' W 002°40'1 2.6
2017-Nov-16 16:00N 46°59' W 002°41'1 2.8
2017-Nov-16 15:30N 46°59' W 002°43'2 3.4
2017-Nov-16 15:00N 47°01' W 002°44'1 2.4
2017-Nov-16 14:30N 47°00' W 002°46'1 2.8
2017-Nov-16 13:58N 47°01' W 002°48'1 2.5
2017-Nov-16 13:30N 47°02' W 002°46'1 2.9
2017-Nov-16 13:00N 47°01' W 002°45'1 2.6
2017-Nov-16 12:30N 47°00' W 002°46'1 2.7
2017-Nov-16 12:00N 47°01' W 002°48'1 2.2
2017-Nov-16 11:30N 47°02' W 002°47'1 2.6
2017-Nov-16 11:00N 47°02' W 002°45'2 2.7
2017-Nov-16 10:25N 47°02' W 002°42'1 2.9
2017-Nov-16 10:00N 47°02' W 002°41'1 2.4
2017-Nov-16 09:30N 47°03' W 002°39'1 2.9
2017-Nov-16 09:00N 47°03' W 002°41'2 3.2
2017-Nov-16 08:30N 47°02' W 002°43'1 2.5
2017-Nov-16 08:00N 47°02' W 002°45'1 2.8
2017-Nov-16 07:30N 47°01' W 002°47'2 2.8
2017-Nov-16 06:57N 47°00' W 002°49'1 2.7
2017-Nov-16 06:30N 47°00' W 002°50'2 3.0
2017-Nov-16 06:00N 47°01' W 002°52'3 3.0
2017-Nov-16 05:09N 47°04' W 002°51'1 2.1
2017-Nov-16 04:52N 47°04' W 002°50'1 3.1
2017-Nov-16 04:30N 47°05' W 002°50'2 3.0
2017-Nov-16 03:59N 47°07' W 002°50'1 3.0
2017-Nov-16 03:30N 47°08' W 002°50'2 3.0
2017-Nov-16 03:00N 47°10' W 002°49'2 3.1
2017-Nov-16 02:29N 47°11' W 002°47'1 2.7
2017-Nov-16 02:00N 47°12' W 002°47'2 3.2
2017-Nov-16 01:30N 47°13' W 002°48'2 3.3
2017-Nov-16 00:57N 47°14' W 002°51'2 2.9
2017-Nov-16 00:24N 47°15' W 002°53'1 2.7
2017-Nov-16 00:00N 47°16' W 002°53'1 2.8
2017-Nov-15 23:30N 47°17' W 002°53'1 2.8
2017-Nov-15 22:59N 47°17' W 002°51'2 3.2
2017-Nov-15 22:28N 47°15' W 002°50'1 2.8
2017-Nov-15 22:00N 47°14' W 002°50'2 2.8
2017-Nov-15 21:18N 47°15' W 002°53'1 3.1
2017-Nov-15 21:00N 47°16' W 002°53'1 2.4
2017-Nov-15 20:29N 47°17' W 002°53'2 2.8
2017-Nov-15 19:56N 47°16' W 002°51'1 3.2
2017-Nov-15 19:30N 47°15' W 002°50'1 2.6
2017-Nov-15 19:01N 47°14' W 002°52'2 2.7
2017-Nov-15 18:21N 47°13' W 002°53'9 3.3
2017-Nov-15 15:40N 47°04' W 002°55'1 2.8
2017-Nov-15 15:24N 47°03' W 002°56'2 2.3
2017-Nov-15 14:35N 47°02' W 002°56'1 2.6
2017-Nov-15 14:11N 47°01' W 002°57'5 1.7
2017-Nov-15 11:09N 47°06' W 002°57'1 2.9
2017-Nov-15 10:53N 47°07' W 002°58'2 1.6
2017-Nov-15 09:33N 47°05' W 002°58'1 2.5
2017-Nov-15 09:10N 47°04' W 002°57'2 3.2
2017-Nov-15 08:40N 47°02' W 002°56'1 3.2
2017-Nov-15 08:25N 47°02' W 002°56'1 2.5
2017-Nov-15 07:58N 47°01' W 002°57'2 3.2
2017-Nov-15 07:27N 47°03' W 002°58'2 3.1
2017-Nov-15 06:42N 47°05' W 002°60'3 3.3
2017-Nov-15 05:51N 47°08' W 002°59'1 1.8
2017-Nov-15 05:30N 47°07' W 002°60'8 2.7
2017-Nov-15 02:24N 47°14' W 002°52'1 3.3
2017-Nov-15 01:57N 47°15' W 002°50'2 3.3
2017-Nov-15 01:25N 47°15' W 002°48'5 8.8
2017-Nov-15 00:52N 47°18' W 002°42'3 8.7
2017-Nov-15 00:30N 47°19' W 002°38'4 8.8
2017-Nov-15 00:00N 47°20' W 002°31'1 1.0
2017-Nov-14 23:26N 47°21' W 002°31'0 0.2
2017-Nov-14 23:00N 47°21' W 002°31'5 9.2
2017-Nov-14 22:30N 47°19' W 002°37'5 9.5
2017-Nov-14 22:01N 47°17' W 002°44'5 9.3
2017-Nov-14 21:30N 47°15' W 002°50'1 2.4
2017-Nov-14 20:56N 47°16' W 002°51'1 3.1
2017-Nov-14 20:30N 47°17' W 002°52'1 2.8
2017-Nov-14 20:00N 47°17' W 002°54'2 3.4
2017-Nov-14 19:27N 47°15' W 002°53'2 3.0
2017-Nov-14 18:56N 47°13' W 002°53'5 2.8
2017-Nov-14 17:16N 47°10' W 002°58'1 2.7
2017-Nov-14 16:54N 47°09' W 002°59'1 2.7
2017-Nov-14 16:26N 47°09' W 003°01'2 0.3
2017-Nov-14 09:41N 47°08' W 003°04'4 3.1
2017-Nov-14 08:28N 47°04' W 003°02'12 3.2
2017-Nov-14 04:39N 47°15' W 002°54'1 6.4
2017-Nov-14 04:30N 47°16' W 002°53'1 2.6
2017-Nov-14 04:00N 47°14' W 002°53'2 3.1
2017-Nov-14 03:29N 47°14' W 002°50'1 2.1
2017-Nov-14 03:00N 47°15' W 002°50'2 3.1
2017-Nov-14 02:29N 47°16' W 002°51'1 3.0
2017-Nov-14 02:00N 47°17' W 002°52'1 2.7
2017-Nov-14 01:30N 47°16' W 002°54'2 3.3
2017-Nov-14 01:01N 47°15' W 002°53'1 2.6
2017-Nov-14 00:30N 47°14' W 002°51'2 1.8
2017-Nov-13 23:32N 47°16' W 002°51'1 3.2
2017-Nov-13 23:17N 47°16' W 002°51'1 3.2
2017-Nov-13 22:59N 47°17' W 002°51'1 3.0
2017-Nov-13 22:31N 47°17' W 002°54'3 3.2
2017-Nov-13 21:44N 47°14' W 002°53'9 0.5
2017-Nov-13 01:51N 47°19' W 002°40'3 8.9
2017-Nov-13 01:30N 47°20' W 002°36'4 7.4
2017-Nov-13 01:00N 47°21' W 002°31'0 0.1
2017-Nov-13 00:31N 47°21' W 002°31'0 0.0
2017-Nov-12 23:59N 47°21' W 002°31'0 0.0
2017-Nov-12 23:15N 47°21' W 002°31'2 6.5
2017-Nov-12 23:00N 47°20' W 002°33'5 9.2
2017-Nov-12 22:30N 47°19' W 002°39'5 9.3
2017-Nov-12 22:00N 47°17' W 002°46'5 9.3
2017-Nov-12 21:30N 47°16' W 002°52'2 2.3
2017-Nov-12 20:38N 47°17' W 002°53'0 2.7
2017-Nov-12 20:30N 47°17' W 002°52'1 2.4
2017-Nov-12 20:00N 47°17' W 002°51'1 2.8
2017-Nov-12 19:30N 47°15' W 002°51'19 0.7
2017-Nov-11 15:19N 47°01' W 002°33'19 0.6
2017-Nov-10 06:02N 47°09' W 002°59'0 3.3
2017-Nov-10 05:59N 47°09' W 002°59'2 3.2
2017-Nov-10 05:26N 47°08' W 003°01'1 3.3
2017-Nov-10 04:59N 47°08' W 003°03'10 2.3
2017-Nov-10 00:27N 47°14' W 002°51'6 7.4
2017-Nov-09 23:39N 47°17' W 002°44'3 9.5
2017-Nov-09 23:23N 47°18' W 002°41'4 9.4
2017-Nov-09 23:00N 47°20' W 002°36'4 1.6
2017-Nov-09 20:45N 47°21' W 002°31'2 6.5
2017-Nov-09 20:30N 47°20' W 002°33'5 9.5
2017-Nov-09 20:01N 47°19' W 002°39'5 9.5
2017-Nov-09 19:30N 47°16' W 002°45'4 7.1
2017-Nov-09 19:00N 47°14' W 002°50'2 3.1
2017-Nov-09 18:30N 47°13' W 002°52'2 3.3
2017-Nov-09 18:00N 47°13' W 002°54'2 3.5
2017-Nov-09 17:30N 47°13' W 002°57'6 0.8
2017-Nov-09 09:31N 47°07' W 002°58'0 2.9
2017-Nov-09 09:30N 47°07' W 002°58'2 2.5
2017-Nov-09 08:43N 47°06' W 002°56'5 1.3
2017-Nov-09 05:18N 47°11' W 002°53'1 2.9
2017-Nov-09 04:56N 47°10' W 002°55'2 3.2
2017-Nov-09 04:26N 47°09' W 002°56'1 3.1
2017-Nov-09 03:57N 47°08' W 002°58'1 2.7
2017-Nov-09 03:28N 47°07' W 002°59'  
Track history (hours):
 
Tides and Currents Weather Stations Pressure Air Temp Water Temp Dewpoint Dewpoint Depression Visibility Wind Speed Wind Dir Waves Ship Positions

F/V Le Dolmen

Last reported at 2017-Nov-18 17:17 UTC. Time now 2017-Nov-18 17:49 UTC.
Position N 46°35' W 003°23'.

Length 18 m.

Type: Fishing. MMSI: 228374000.

Date/timePositionNaut miles runAvg speedWind from/ knotsBaromVisibWave heightAir tempDewpointWater temp
2017-Nov-18 17:17N 46°35' W 003°23'5 3.0
2017-Nov-18 15:35N 46°40' W 003°27'48 1.3
2017-Nov-17 03:16N 47°17' W 002°41'2 9.4
2017-Nov-17 03:00N 47°19' W 002°39'5 9.6
2017-Nov-17 02:29N 47°20' W 002°32'1 1.7
2017-Nov-17 01:59N 47°21' W 002°31'0 0.0
2017-Nov-16 23:58N 47°21' W 002°31'3 7.2
2017-Nov-16 23:30N 47°18' W 002°34'5 9.8
2017-Nov-16 23:00N 47°14' W 002°38'5 9.9
2017-Nov-16 22:30N 47°10' W 002°43'5 9.8
2017-Nov-16 22:00N 47°07' W 002°48'3 6.9
2017-Nov-16 21:30N 47°04' W 002°51'2 3.1
2017-Nov-16 20:54N 47°03' W 002°52'3 2.8
2017-Nov-16 19:41N 47°00' W 002°49'1 3.4
2017-Nov-16 19:28N 47°00' W 002°48'1 3.2
2017-Nov-16 19:00N 47°01' W 002°46'2 3.4
2017-Nov-16 18:30N 47°02' W 002°44'3 3.1
2017-Nov-16 17:37N 47°03' W 002°40'0 2.7
2017-Nov-16 17:30N 47°02' W 002°40'1 2.5
2017-Nov-16 17:00N 47°01' W 002°41'1 2.9
2017-Nov-16 16:30N 46°60' W 002°40'1 2.6
2017-Nov-16 16:00N 46°59' W 002°41'1 2.8
2017-Nov-16 15:30N 46°59' W 002°43'2 3.4
2017-Nov-16 15:00N 47°01' W 002°44'1 2.4
2017-Nov-16 14:30N 47°00' W 002°46'1 2.8
2017-Nov-16 13:58N 47°01' W 002°48'1 2.5
2017-Nov-16 13:30N 47°02' W 002°46'1 2.9
2017-Nov-16 13:00N 47°01' W 002°45'1 2.6
2017-Nov-16 12:30N 47°00' W 002°46'1 2.7
2017-Nov-16 12:00N 47°01' W 002°48'1 2.2
2017-Nov-16 11:30N 47°02' W 002°47'1 2.6
2017-Nov-16 11:00N 47°02' W 002°45'2 2.7
2017-Nov-16 10:25N 47°02' W 002°42'1 2.9
2017-Nov-16 10:00N 47°02' W 002°41'1 2.4
2017-Nov-16 09:30N 47°03' W 002°39'1 2.9
2017-Nov-16 09:00N 47°03' W 002°41'2 3.2
2017-Nov-16 08:30N 47°02' W 002°43'1 2.5
2017-Nov-16 08:00N 47°02' W 002°45'1 2.8
2017-Nov-16 07:30N 47°01' W 002°47'2 2.8
2017-Nov-16 06:57N 47°00' W 002°49'1 2.7
2017-Nov-16 06:30N 47°00' W 002°50'2 3.0
2017-Nov-16 06:00N 47°01' W 002°52'3 3.0
2017-Nov-16 05:09N 47°04' W 002°51'1 2.1
2017-Nov-16 04:52N 47°04' W 002°50'1 3.1
2017-Nov-16 04:30N 47°05' W 002°50'2 3.0
2017-Nov-16 03:59N 47°07' W 002°50'1 3.0
2017-Nov-16 03:30N 47°08' W 002°50'2 3.0
2017-Nov-16 03:00N 47°10' W 002°49'2 3.1
2017-Nov-16 02:29N 47°11' W 002°47'1 2.7
2017-Nov-16 02:00N 47°12' W 002°47'2 3.2
2017-Nov-16 01:30N 47°13' W 002°48'2 3.3
2017-Nov-16 00:57N 47°14' W 002°51'2 2.9
2017-Nov-16 00:24N 47°15' W 002°53'1 2.7
2017-Nov-16 00:00N 47°16' W 002°53'1 2.8
2017-Nov-15 23:30N 47°17' W 002°53'1 2.8
2017-Nov-15 22:59N 47°17' W 002°51'2 3.2
2017-Nov-15 22:28N 47°15' W 002°50'1 2.8
2017-Nov-15 22:00N 47°14' W 002°50'2 2.8
2017-Nov-15 21:18N 47°15' W 002°53'1 3.1
2017-Nov-15 21:00N 47°16' W 002°53'1 2.4
2017-Nov-15 20:29N 47°17' W 002°53'2 2.8
2017-Nov-15 19:56N 47°16' W 002°51'1 3.2
2017-Nov-15 19:30N 47°15' W 002°50'1 2.6
2017-Nov-15 19:01N 47°14' W 002°52'2 2.7
2017-Nov-15 18:21N 47°13' W 002°53'9 3.3
2017-Nov-15 15:40N 47°04' W 002°55'1 2.8
2017-Nov-15 15:24N 47°03' W 002°56'2 2.3
2017-Nov-15 14:35N 47°02' W 002°56'1 2.6
2017-Nov-15 14:11N 47°01' W 002°57'5 1.7
2017-Nov-15 11:09N 47°06' W 002°57'1 2.9
2017-Nov-15 10:53N 47°07' W 002°58'2 1.6
2017-Nov-15 09:33N 47°05' W 002°58'1 2.5
2017-Nov-15 09:10N 47°04' W 002°57'2 3.2
2017-Nov-15 08:40N 47°02' W 002°56'1 3.2
2017-Nov-15 08:25N 47°02' W 002°56'1 2.5
2017-Nov-15 07:58N 47°01' W 002°57'2 3.2
2017-Nov-15 07:27N 47°03' W 002°58'2 3.1
2017-Nov-15 06:42N 47°05' W 002°60'3 3.3
2017-Nov-15 05:51N 47°08' W 002°59'1 1.8
2017-Nov-15 05:30N 47°07' W 002°60'8 2.7
2017-Nov-15 02:24N 47°14' W 002°52'1 3.3
2017-Nov-15 01:57N 47°15' W 002°50'2 3.3
2017-Nov-15 01:25N 47°15' W 002°48'5 8.8
2017-Nov-15 00:52N 47°18' W 002°42'3 8.7
2017-Nov-15 00:30N 47°19' W 002°38'4 8.8
2017-Nov-15 00:00N 47°20' W 002°31'1 1.0
2017-Nov-14 23:26N 47°21' W 002°31'0 0.2
2017-Nov-14 23:00N 47°21' W 002°31'5 9.2
2017-Nov-14 22:30N 47°19' W 002°37'5 9.5
2017-Nov-14 22:01N 47°17' W 002°44'5 9.3
2017-Nov-14 21:30N 47°15' W 002°50'1 2.4
2017-Nov-14 20:56N 47°16' W 002°51'1 3.1
2017-Nov-14 20:30N 47°17' W 002°52'1 2.8
2017-Nov-14 20:00N 47°17' W 002°54'2 3.4
2017-Nov-14 19:27N 47°15' W 002°53'2 3.0
2017-Nov-14 18:56N 47°13' W 002°53'5 2.8
2017-Nov-14 17:16N 47°10' W 002°58'1 2.7
2017-Nov-14 16:54N 47°09' W 002°59'1 2.7
2017-Nov-14 16:26N 47°09' W 003°01'2 0.3
2017-Nov-14 09:41N 47°08' W 003°04'4 3.1
2017-Nov-14 08:28N 47°04' W 003°02'12 3.2
2017-Nov-14 04:39N 47°15' W 002°54'1 6.4
2017-Nov-14 04:30N 47°16' W 002°53'1 2.6
2017-Nov-14 04:00N 47°14' W 002°53'2 3.1
2017-Nov-14 03:29N 47°14' W 002°50'1 2.1
2017-Nov-14 03:00N 47°15' W 002°50'2 3.1
2017-Nov-14 02:29N 47°16' W 002°51'1 3.0
2017-Nov-14 02:00N 47°17' W 002°52'1 2.7
2017-Nov-14 01:30N 47°16' W 002°54'2 3.3
2017-Nov-14 01:01N 47°15' W 002°53'1 2.6
2017-Nov-14 00:30N 47°14' W 002°51'2 1.8
2017-Nov-13 23:32N 47°16' W 002°51'1 3.2
2017-Nov-13 23:17N 47°16' W 002°51'1 3.2
2017-Nov-13 22:59N 47°17' W 002°51'1 3.0
2017-Nov-13 22:31N 47°17' W 002°54'3 3.2
2017-Nov-13 21:44N 47°14' W 002°53'9 0.5
2017-Nov-13 01:51N 47°19' W 002°40'3 8.9
2017-Nov-13 01:30N 47°20' W 002°36'4 7.4
2017-Nov-13 01:00N 47°21' W 002°31'0 0.1
2017-Nov-13 00:31N 47°21' W 002°31'0 0.0
2017-Nov-12 23:59N 47°21' W 002°31'0 0.0
2017-Nov-12 23:15N 47°21' W 002°31'2 6.5
2017-Nov-12 23:00N 47°20' W 002°33'5 9.2
2017-Nov-12 22:30N 47°19' W 002°39'5 9.3
2017-Nov-12 22:00N 47°17' W 002°46'5 9.3
2017-Nov-12 21:30N 47°16' W 002°52'2 2.3
2017-Nov-12 20:38N 47°17' W 002°53'0 2.7
2017-Nov-12 20:30N 47°17' W 002°52'1 2.4
2017-Nov-12 20:00N 47°17' W 002°51'1 2.8
2017-Nov-12 19:30N 47°15' W 002°51'19 0.7
2017-Nov-11 15:19N 47°01' W 002°33'19 0.6
2017-Nov-10 06:02N 47°09' W 002°59'0 3.3
2017-Nov-10 05:59N 47°09' W 002°59'2 3.2
2017-Nov-10 05:26N 47°08' W 003°01'1 3.3
2017-Nov-10 04:59N 47°08' W 003°03'10 2.3
2017-Nov-10 00:27N 47°14' W 002°51'6 7.4
2017-Nov-09 23:39N 47°17' W 002°44'3 9.5
2017-Nov-09 23:23N 47°18' W 002°41'4 9.4
2017-Nov-09 23:00N 47°20' W 002°36'4 1.6
2017-Nov-09 20:45N 47°21' W 002°31'2 6.5
2017-Nov-09 20:30N 47°20' W 002°33'5 9.5
2017-Nov-09 20:01N 47°19' W 002°39'5 9.5
2017-Nov-09 19:30N 47°16' W 002°45'4 7.1
2017-Nov-09 19:00N 47°14' W 002°50'2 3.1
2017-Nov-09 18:30N 47°13' W 002°52'2 3.3
2017-Nov-09 18:00N 47°13' W 002°54'2 3.5
2017-Nov-09 17:30N 47°13' W 002°57'6 0.8
2017-Nov-09 09:31N 47°07' W 002°58'0 2.9
2017-Nov-09 09:30N 47°07' W 002°58'2 2.5
2017-Nov-09 08:43N 47°06' W 002°56'5 1.3
2017-Nov-09 05:18N 47°11' W 002°53'1 2.9
2017-Nov-09 04:56N 47°10' W 002°55'2 3.2
2017-Nov-09 04:26N 47°09' W 002°56'1 3.1
2017-Nov-09 03:57N 47°08' W 002°58'1 2.7
2017-Nov-09 03:28N 47°07' W 002°59'  

Dump ship's entire track history